Time;durP1;ratioP1;P1;durP2;ratioP2;P2;SDS_P1;SDS_P2;PMS_P1;PMS_P2;Temp;Humidity;BMP_temperature;BMP_pressure;BME280_temperature;BME280_humidity;BME280_pressure;Samples;Min_cycle;Max_cycle;Signal;HPM_P1;HPM_P2
2021/07/04 00:01:22;;;;;;;22.25;19.75;;;;;;;;;;5053931;28;20063;-66
2021/07/04 00:04:08;;;;;;;21.98;19.60;;;;;;;;;;5054339;28;20045;-65
2021/07/04 00:06:53;;;;;;;23.90;21.42;;;;;;;;;;5052880;28;20056;-65
2021/07/04 00:09:39;;;;;;;23.90;21.35;;;;;;;;;;5054009;28;20683;-65
2021/07/04 00:12:24;;;;;;;25.00;22.30;;;;;;;;;;5054139;28;20509;-65
2021/07/04 00:15:10;;;;;;;24.63;20.75;;;;;;;;;;5050840;28;20041;-65
2021/07/04 00:17:56;;;;;;;23.98;21.23;;;;;;;;;;5053912;28;20514;-65
2021/07/04 00:20:42;;;;;;;22.92;19.98;;;;;;;;;;5053772;28;20410;-65
2021/07/04 00:23:28;;;;;;;23.23;20.75;;;;;;;;;;5054259;28;20048;-65
2021/07/04 00:26:14;;;;;;;23.77;21.35;;;;;;;;;;5051782;28;20497;-65
2021/07/04 00:28:59;;;;;;;24.02;21.48;;;;;;;;;;5053713;28;20126;-65
2021/07/04 00:31:44;;;;;;;22.85;20.33;;;;;;;;;;5053849;28;20126;-65
2021/07/04 00:34:30;;;;;;;29.23;23.02;;;;;;;;;;5052087;28;20495;-65
2021/07/04 00:37:15;;;;;;;25.02;22.17;;;;;;;;;;5053983;28;20139;-65
2021/07/04 00:40:00;;;;;;;22.75;20.45;;;;;;;;;;5066583;28;20500;-65
2021/07/04 00:42:47;;;;;;;23.13;20.70;;;;;;;;;;5066745;28;20064;-65
2021/07/04 00:45:33;;;;;;;24.35;21.60;;;;;;;;;;5051929;28;20509;-65
2021/07/04 00:48:18;;;;;;;22.83;20.10;;;;;;;;;;5053500;28;20052;-65
2021/07/04 00:51:06;;;;;;;24.60;22.10;;;;;;;;;;5052231;28;20128;-65
2021/07/04 00:53:51;;;;;;;23.67;21.20;;;;;;;;;;5052445;28;20406;-65
2021/07/04 00:56:37;;;;;;;25.80;22.55;;;;;;;;;;5051827;28;20179;-65
2021/07/04 00:59:22;;;;;;;26.98;23.50;;;;;;;;;;5053211;28;20072;-64
2021/07/04 01:02:08;;;;;;;32.13;23.52;;;;;;;;;;5052528;28;20048;-65
2021/07/04 01:04:55;;;;;;;28.35;24.17;;;;;;;;;;5066251;28;20057;-66
2021/07/04 01:07:41;;;;;;;29.23;24.52;;;;;;;;;;5053392;28;20043;-65
2021/07/04 01:10:27;;;;;;;31.75;24.80;;;;;;;;;;5065917;28;20049;-65
2021/07/04 01:13:21;;;;;;;26.98;23.77;;;;;;;;;;5066588;28;20055;-65
2021/07/04 01:16:20;;;;;;;27.15;23.75;;;;;;;;;;5064685;28;20048;-65
2021/07/04 01:19:07;;;;;;;30.67;25.00;;;;;;;;;;5052035;28;20413;-65
2021/07/04 01:21:54;;;;;;;30.33;23.33;;;;;;;;;;5052076;28;20052;-65
2021/07/04 01:24:39;;;;;;;26.95;23.30;;;;;;;;;;5053400;28;20155;-65
2021/07/04 01:27:25;;;;;;;26.95;22.92;;;;;;;;;;5050448;28;20132;-65
2021/07/04 01:30:11;;;;;;;25.00;22.42;;;;;;;;;;5052628;28;20552;-65
2021/07/04 01:32:57;;;;;;;33.30;26.40;;;;;;;;;;5095466;22;20479;-66
2021/07/04 01:35:42;;;;;;;36.05;26.98;;;;;;;;;;5050159;28;20568;-66
2021/07/04 01:38:28;;;;;;;31.35;24.70;;;;;;;;;;5050819;28;20048;-66
2021/07/04 01:41:13;;;;;;;34.28;26.80;;;;;;;;;;5050297;28;20048;-66
2021/07/04 01:43:59;;;;;;;36.30;29.05;;;;;;;;;;5064663;28;20051;-67
2021/07/04 01:46:46;;;;;;;35.42;28.98;;;;;;;;;;5061706;28;20091;-66
2021/07/04 01:49:32;;;;;;;38.38;29.90;;;;;;;;;;5050415;28;20095;-66
2021/07/04 01:52:18;;;;;;;40.03;30.92;;;;;;;;;;5060185;28;20087;-66
2021/07/04 01:55:08;;;;;;;37.03;28.80;;;;;;;;;;5064213;28;20040;-66
2021/07/04 01:57:56;;;;;;;43.97;32.03;;;;;;;;;;5054447;28;20537;-67
2021/07/04 02:00:48;;;;;;;42.42;32.00;;;;;;;;;;5070835;28;20146;-66
2021/07/04 02:03:34;;;;;;;44.38;32.33;;;;;;;;;;5068733;28;20567;-66
2021/07/04 02:06:23;;;;;;;42.00;32.35;;;;;;;;;;5066289;28;20058;-66
2021/07/04 02:09:10;;;;;;;44.45;30.95;;;;;;;;;;5050882;28;20060;-66
2021/07/04 02:11:55;;;;;;;46.17;33.45;;;;;;;;;;5064568;28;20048;-66
2021/07/04 02:14:42;;;;;;;43.72;31.83;;;;;;;;;;5065082;28;20134;-66
2021/07/04 02:17:37;;;;;;;40.58;30.63;;;;;;;;;;5066552;28;20053;-66
2021/07/04 02:20:42;;;;;;;37.80;29.95;;;;;;;;;;5062554;28;20045;-67
2021/07/04 02:23:36;;;;;;;38.15;31.25;;;;;;;;;;5067426;28;20062;-66
2021/07/04 02:26:41;;;;;;;37.70;30.85;;;;;;;;;;5071733;28;20109;-66
2021/07/04 02:29:41;;;;;;;44.70;33.55;;;;;;;;;;5071580;28;20037;-66
2021/07/04 02:32:31;;;;;;;43.20;33.75;;;;;;;;;;5068565;28;20513;-66
2021/07/04 02:35:19;;;;;;;44.13;33.40;;;;;;;;;;5070600;28;20063;-66
2021/07/04 02:38:05;;;;;;;43.88;33.25;;;;;;;;;;5056592;28;20459;-66
2021/07/04 02:40:53;;;;;;;36.90;31.13;;;;;;;;;;5071526;28;20090;-66
2021/07/04 02:43:39;;;;;;;43.50;33.35;;;;;;;;;;5031671;28;20041;-66
2021/07/04 02:46:28;;;;;;;45.65;33.53;;;;;;;;;;5030572;28;20530;-67
2021/07/04 02:49:13;;;;;;;49.38;34.28;;;;;;;;;;5031670;28;20492;-66
2021/07/04 02:52:01;;;;;;;44.30;34.05;;;;;;;;;;5046507;28;20076;-66
2021/07/04 02:54:47;;;;;;;42.58;32.60;;;;;;;;;;5070592;28;20044;-66
2021/07/04 02:57:44;;;;;;;47.72;35.45;;;;;;;;;;5070319;28;20513;-66
2021/07/04 03:00:37;;;;;;;41.75;32.17;;;;;;;;;;5070082;28;20075;-66
2021/07/04 03:03:22;;;;;;;42.90;33.10;;;;;;;;;;5053964;28;20041;-67
2021/07/04 03:06:09;;;;;;;46.83;34.13;;;;;;;;;;5071458;28;20151;-67
2021/07/04 03:08:56;;;;;;;40.33;32.85;;;;;;;;;;5071919;28;20044;-65
2021/07/04 03:11:41;;;;;;;42.75;32.80;;;;;;;;;;5072031;28;20045;-66
2021/07/04 03:14:27;;;;;;;48.22;32.15;;;;;;;;;;5034972;28;20050;-66
2021/07/04 03:17:13;;;;;;;45.22;34.92;;;;;;;;;;5034108;28;20491;-66
2021/07/04 03:19:59;;;;;;;45.40;33.80;;;;;;;;;;5067962;28;20045;-67
2021/07/04 03:22:45;;;;;;;48.70;34.13;;;;;;;;;;5072050;28;20070;-66
2021/07/04 03:25:31;;;;;;;38.92;29.60;;;;;;;;;;5070844;28;20037;-67
2021/07/04 03:28:16;;;;;;;37.95;30.77;;;;;;;;;;5074908;28;20048;-66
2021/07/04 03:31:03;;;;;;;37.92;29.98;;;;;;;;;;5068236;28;20052;-66
2021/07/04 03:33:51;;;;;;;38.33;31.52;;;;;;;;;;5073679;28;20049;-67
2021/07/04 03:36:36;;;;;;;41.85;33.45;;;;;;;;;;5068461;28;20048;-66
2021/07/04 03:39:28;;;;;;;46.38;36.63;;;;;;;;;;5073423;28;20045;-66
2021/07/04 03:42:14;;;;;;;47.45;35.72;;;;;;;;;;5072305;28;20036;-66
2021/07/04 03:45:01;;;;;;;48.88;37.78;;;;;;;;;;5073567;28;20041;-67
2021/07/04 03:47:47;;;;;;;48.85;37.80;;;;;;;;;;5073534;28;20434;-68
2021/07/04 03:50:36;;;;;;;50.50;37.40;;;;;;;;;;5054409;28;20039;-66
2021/07/04 03:53:21;;;;;;;44.78;36.00;;;;;;;;;;5074271;28;20032;-68
2021/07/04 03:56:09;;;;;;;56.60;39.05;;;;;;;;;;5073364;28;20041;-66
2021/07/04 03:58:55;;;;;;;50.15;36.70;;;;;;;;;;5067987;28;20138;-68
2021/07/04 04:01:42;;;;;;;42.40;36.63;;;;;;;;;;5033003;28;20052;-68
2021/07/04 04:04:30;;;;;;;45.80;37.22;;;;;;;;;;5033200;28;20041;-66
2021/07/04 04:07:36;;;;;;;47.80;37.58;;;;;;;;;;5030579;28;20430;-67
2021/07/04 04:10:21;;;;;;;45.40;37.45;;;;;;;;;;5072776;28;20047;-68
2021/07/04 04:13:09;;;;;;;46.38;35.80;;;;;;;;;;5073748;28;20436;-66
2021/07/04 04:15:58;;;;;;;46.10;35.60;;;;;;;;;;5073949;28;20059;-68
2021/07/04 04:18:47;;;;;;;48.92;38.47;;;;;;;;;;5071272;28;20044;-66
2021/07/04 04:21:34;;;;;;;44.50;36.67;;;;;;;;;;5072966;28;20041;-66
2021/07/04 04:24:24;;;;;;;46.83;34.33;;;;;;;;;;5065542;28;20079;-67
2021/07/04 04:27:10;;;;;;;42.30;34.47;;;;;;;;;;5058804;28;20109;-67
2021/07/04 04:29:56;;;;;;;42.35;34.13;;;;;;;;;;5072677;28;20044;-66
2021/07/04 04:32:42;;;;;;;49.55;37.55;;;;;;;;;;5073361;28;20254;-68
2021/07/04 04:35:28;;;;;;;42.15;33.35;;;;;;;;;;5070228;28;20044;-68
2021/07/04 04:38:13;;;;;;;43.60;33.70;;;;;;;;;;5071039;28;20490;-66
2021/07/04 04:40:59;;;;;;;38.65;33.15;;;;;;;;;;5073123;28;20048;-66
2021/07/04 04:43:44;;;;;;;43.05;33.92;;;;;;;;;;5073245;28;20032;-67
2021/07/04 04:46:30;;;;;;;34.92;31.17;;;;;;;;;;5069662;28;20045;-66
2021/07/04 04:49:15;;;;;;;36.03;31.15;;;;;;;;;;5073134;28;20417;-70
2021/07/04 04:52:00;;;;;;;35.80;30.55;;;;;;;;;;5072169;28;20048;-66
2021/07/04 04:54:45;;;;;;;38.08;32.10;;;;;;;;;;5070921;28;20114;-67
2021/07/04 04:57:31;;;;;;;35.42;30.42;;;;;;;;;;5069939;28;20044;-69
2021/07/04 05:00:16;;;;;;;34.25;30.08;;;;;;;;;;5032823;28;20068;-66
2021/07/04 05:03:08;;;;;;;32.80;28.35;;;;;;;;;;5068639;28;20067;-67
2021/07/04 05:05:53;;;;;;;33.03;29.53;;;;;;;;;;5070583;28;20415;-66
2021/07/04 05:08:38;;;;;;;32.58;27.88;;;;;;;;;;5072774;28;20064;-67
2021/07/04 05:11:24;;;;;;;34.10;28.98;;;;;;;;;;5067163;28;20158;-67
2021/07/04 05:14:09;;;;;;;35.85;28.10;;;;;;;;;;5072717;28;20509;-66
2021/07/04 05:16:54;;;;;;;27.38;24.45;;;;;;;;;;5065822;28;20057;-67
2021/07/04 05:19:40;;;;;;;25.67;22.92;;;;;;;;;;5072437;28;20047;-67
2021/07/04 05:22:25;;;;;;;27.02;23.35;;;;;;;;;;5068007;28;20033;-67
2021/07/04 05:25:11;;;;;;;27.00;22.13;;;;;;;;;;5072699;28;20156;-66
2021/07/04 05:27:59;;;;;;;24.70;22.02;;;;;;;;;;5070395;28;20045;-66
2021/07/04 05:30:44;;;;;;;24.67;22.17;;;;;;;;;;5072267;28;20044;-67
2021/07/04 05:33:29;;;;;;;23.80;21.38;;;;;;;;;;5071428;28;20043;-67
2021/07/04 05:36:15;;;;;;;25.58;22.60;;;;;;;;;;5072428;28;20052;-66
2021/07/04 05:39:00;;;;;;;22.15;19.30;;;;;;;;;;5064681;28;20568;-66
2021/07/04 05:41:46;;;;;;;21.15;19.02;;;;;;;;;;5049473;28;20114;-67
2021/07/04 05:44:31;;;;;;;22.23;19.92;;;;;;;;;;5049200;28;20396;-66
2021/07/04 05:47:16;;;;;;;21.38;19.17;;;;;;;;;;5050772;28;20044;-67
2021/07/04 05:50:01;;;;;;;20.33;18.33;;;;;;;;;;5053554;28;20048;-66
2021/07/04 05:52:46;;;;;;;22.65;20.27;;;;;;;;;;5051274;28;20450;-66
2021/07/04 05:55:31;;;;;;;21.80;19.27;;;;;;;;;;5052215;28;20565;-66
2021/07/04 05:58:17;;;;;;;21.88;19.75;;;;;;;;;;5053366;28;20706;-66
2021/07/04 06:01:02;;;;;;;21.30;19.10;;;;;;;;;;5071932;28;20052;-66
2021/07/04 06:03:48;;;;;;;21.55;19.33;;;;;;;;;;5072101;28;20051;-66
2021/07/04 06:06:33;;;;;;;22.90;20.60;;;;;;;;;;5072075;28;20049;-66
2021/07/04 06:09:18;;;;;;;21.23;19.13;;;;;;;;;;5070347;28;20190;-67
2021/07/04 06:12:04;;;;;;;21.38;19.27;;;;;;;;;;5071913;28;20078;-66
2021/07/04 06:14:49;;;;;;;22.52;19.40;;;;;;;;;;5032264;28;20441;-66
2021/07/04 06:17:35;;;;;;;20.45;18.35;;;;;;;;;;5064215;28;20114;-67
2021/07/04 06:20:23;;;;;;;22.15;19.85;;;;;;;;;;5069230;28;20044;-66
2021/07/04 06:23:08;;;;;;;22.10;19.90;;;;;;;;;;5072071;28;20045;-68
2021/07/04 06:25:54;;;;;;;22.48;20.17;;;;;;;;;;5068977;28;20053;-66
2021/07/04 06:28:39;;;;;;;21.15;19.20;;;;;;;;;;5068498;28;20045;-66
2021/07/04 06:31:27;;;;;;;21.50;19.20;;;;;;;;;;5071664;28;20174;-68
2021/07/04 06:34:12;;;;;;;21.23;19.30;;;;;;;;;;5064127;28;20132;-67
2021/07/04 06:36:58;;;;;;;21.85;19.80;;;;;;;;;;5071685;28;20040;-67
2021/07/04 06:39:43;;;;;;;19.52;17.70;;;;;;;;;;5053896;28;20493;-66
2021/07/04 06:42:28;;;;;;;19.00;17.20;;;;;;;;;;5050752;28;20628;-67
2021/07/04 06:45:14;;;;;;;22.90;20.45;;;;;;;;;;5072641;28;20438;-67
2021/07/04 06:47:59;;;;;;;20.52;18.50;;;;;;;;;;5055255;28;20053;-66
2021/07/04 06:50:44;;;;;;;18.65;16.98;;;;;;;;;;5054136;28;20055;-67
2021/07/04 06:53:30;;;;;;;18.35;16.45;;;;;;;;;;5056499;28;20041;-67
2021/07/04 06:56:15;;;;;;;17.02;15.43;;;;;;;;;;5075434;28;20066;-66
2021/07/04 06:59:01;;;;;;;15.98;14.48;;;;;;;;;;5075472;28;20052;-66
2021/07/04 07:01:46;;;;;;;15.50;14.10;;;;;;;;;;5067439;28;20509;-66
2021/07/04 07:04:31;;;;;;;16.27;14.80;;;;;;;;;;5075447;28;20402;-67
2021/07/04 07:07:17;;;;;;;13.82;12.45;;;;;;;;;;5075294;28;20056;-67
2021/07/04 07:10:03;;;;;;;14.93;13.52;;;;;;;;;;5069198;28;20501;-67
2021/07/04 07:12:48;;;;;;;14.00;12.75;;;;;;;;;;5053739;28;20044;-67
2021/07/04 07:15:33;;;;;;;13.18;11.98;;;;;;;;;;5052607;28;20044;-66
2021/07/04 07:18:19;;;;;;;15.77;14.32;;;;;;;;;;5052103;28;20513;-66
2021/07/04 07:21:04;;;;;;;14.93;13.50;;;;;;;;;;5052242;28;20051;-66
2021/07/04 07:23:50;;;;;;;13.68;12.35;;;;;;;;;;5072467;28;20186;-66
2021/07/04 07:26:35;;;;;;;13.43;12.23;;;;;;;;;;5070345;28;20043;-66
2021/07/04 07:29:21;;;;;;;14.73;13.23;;;;;;;;;;5074946;28;20055;-66
2021/07/04 07:32:07;;;;;;;14.15;12.82;;;;;;;;;;5069211;28;20111;-67
2021/07/04 07:34:53;;;;;;;13.32;12.13;;;;;;;;;;5074838;28;20040;-67
2021/07/04 07:37:38;;;;;;;13.75;12.45;;;;;;;;;;5071577;28;20036;-67
2021/07/04 07:40:24;;;;;;;11.63;10.52;;;;;;;;;;5074686;28;20110;-67
2021/07/04 07:43:13;;;;;;;11.18;9.98;;;;;;;;;;5070245;28;20402;-67
2021/07/04 07:45:58;;;;;;;11.57;10.48;;;;;;;;;;5068639;28;20041;-67
2021/07/04 07:48:43;;;;;;;12.15;11.05;;;;;;;;;;5074392;28;20518;-67
2021/07/04 07:51:48;;;;;;;13.70;12.30;;;;;;;;;;5065949;28;20098;-66
2021/07/04 07:54:34;;;;;;;13.75;12.45;;;;;;;;;;5068519;28;20629;-66
2021/07/04 07:57:19;;;;;;;14.20;12.88;;;;;;;;;;5067279;28;20072;-66
2021/07/04 08:00:07;;;;;;;12.82;11.65;;;;;;;;;;5048405;28;20298;-66
2021/07/04 08:03:00;;;;;;;12.75;11.60;;;;;;;;;;5048969;28;20117;-66
2021/07/04 08:05:45;;;;;;;14.05;12.70;;;;;;;;;;5051242;28;20040;-66
2021/07/04 08:08:31;;;;;;;14.50;13.05;;;;;;;;;;5052404;28;20106;-67
2021/07/04 08:11:16;;;;;;;16.38;14.88;;;;;;;;;;5051310;28;20040;-66
2021/07/04 08:14:02;;;;;;;13.55;12.35;;;;;;;;;;5051104;28;20045;-66
2021/07/04 08:16:48;;;;;;;15.07;13.77;;;;;;;;;;5050188;28;20403;-66
2021/07/04 08:19:33;;;;;;;16.02;14.57;;;;;;;;;;5052135;28;20162;-67
2021/07/04 08:22:19;;;;;;;17.35;15.73;;;;;;;;;;5062614;28;20048;-68
2021/07/04 08:25:05;;;;;;;20.95;19.05;;;;;;;;;;5067704;28;20624;-66
2021/07/04 08:27:50;;;;;;;18.98;17.27;;;;;;;;;;5071433;28;20418;-66
2021/07/04 08:30:36;;;;;;;16.50;15.00;;;;;;;;;;5112222;22;20037;-65
2021/07/04 08:33:21;;;;;;;17.58;16.05;;;;;;;;;;5073808;28;20056;-65
2021/07/04 08:36:06;;;;;;;18.60;17.00;;;;;;;;;;5073592;28;20048;-65
2021/07/04 08:38:52;;;;;;;17.98;16.38;;;;;;;;;;5076219;28;20111;-65
2021/07/04 08:41:38;;;;;;;19.58;17.70;;;;;;;;;;5093412;28;20097;-65
2021/07/04 08:44:23;;;;;;;17.33;15.70;;;;;;;;;;5090088;28;20040;-65
2021/07/04 08:47:08;;;;;;;16.95;15.38;;;;;;;;;;5087490;28;20047;-65
2021/07/04 08:49:54;;;;;;;16.17;14.77;;;;;;;;;;5091451;28;20097;-65
2021/07/04 08:52:40;;;;;;;15.45;13.95;;;;;;;;;;5092998;28;20047;-65
2021/07/04 08:55:25;;;;;;;16.48;14.80;;;;;;;;;;5089130;28;20123;-66
2021/07/04 08:58:11;;;;;;;15.30;13.90;;;;;;;;;;5090036;28;20047;-65
2021/07/04 09:01:13;;;;;;;17.45;15.75;;;;;;;;;;5092937;28;20051;-65
2021/07/04 09:04:08;;;;;;;19.85;17.85;;;;;;;;;;5092848;28;20123;-66
2021/07/04 09:06:53;;;;;;;24.60;22.20;;;;;;;;;;5090923;28;20119;-65
2021/07/04 09:09:38;;;;;;;27.60;24.83;;;;;;;;;;5092196;28;20044;-65
2021/07/04 09:12:33;;;;;;;25.42;22.77;;;;;;;;;;5093145;28;20089;-66
2021/07/04 09:15:19;;;;;;;21.52;19.27;;;;;;;;;;5079181;28;20119;-65
2021/07/04 09:18:04;;;;;;;22.25;20.05;;;;;;;;;;5070419;28;20426;-66
2021/07/04 09:20:51;;;;;;;29.33;26.17;;;;;;;;;;5070667;28;20068;-65
2021/07/04 09:23:36;;;;;;;25.85;23.23;;;;;;;;;;5071557;28;20044;-66
2021/07/04 09:26:40;;;;;;;24.88;22.38;;;;;;;;;;5070191;28;20094;-66
2021/07/04 09:29:40;;;;;;;21.48;19.38;;;;;;;;;;5068877;28;20105;-66
2021/07/04 09:32:26;;;;;;;23.10;20.90;;;;;;;;;;5069883;28;20044;-66
2021/07/04 09:35:13;;;;;;;19.58;17.58;;;;;;;;;;5070757;28;20056;-66
2021/07/04 09:37:58;;;;;;;22.98;20.60;;;;;;;;;;5070416;28;20043;-66
2021/07/04 09:40:43;;;;;;;23.17;20.98;;;;;;;;;;5069427;28;20082;-67
2021/07/04 09:43:29;;;;;;;23.27;20.98;;;;;;;;;;5070244;28;20042;-67
2021/07/04 09:46:15;;;;;;;25.38;22.92;;;;;;;;;;5070612;28;20036;-68
2021/07/04 09:49:00;;;;;;;27.42;24.65;;;;;;;;;;5070748;28;20402;-67
2021/07/04 09:51:45;;;;;;;28.70;25.75;;;;;;;;;;5070497;28;20042;-67
2021/07/04 09:54:31;;;;;;;27.02;24.23;;;;;;;;;;5072179;28;20503;-68
2021/07/04 09:57:16;;;;;;;29.42;26.52;;;;;;;;;;5072049;28;20068;-68
2021/07/04 10:00:14;;;;;;;29.42;26.38;;;;;;;;;;5071646;28;20414;-68
2021/07/04 10:03:08;;;;;;;30.02;26.85;;;;;;;;;;5083815;28;20047;-68
2021/07/04 10:05:54;;;;;;;35.13;27.30;;;;;;;;;;5092297;28;20040;-68
2021/07/04 10:08:40;;;;;;;29.85;26.92;;;;;;;;;;5091522;28;20048;-68
2021/07/04 10:11:25;;;;;;;26.85;24.15;;;;;;;;;;5089392;28;20046;-68
2021/07/04 10:14:10;;;;;;;22.17;19.98;;;;;;;;;;5092164;28;20047;-67
2021/07/04 10:16:56;;;;;;;20.42;18.42;;;;;;;;;;5092046;28;20067;-67
2021/07/04 10:19:41;;;;;;;23.55;21.25;;;;;;;;;;5090521;28;20045;-67
2021/07/04 10:22:27;;;;;;;21.48;19.38;;;;;;;;;;5086499;28;20089;-66
2021/07/04 10:25:12;;;;;;;16.17;14.70;;;;;;;;;;5051927;28;20052;-66
2021/07/04 10:27:57;;;;;;;16.38;14.80;;;;;;;;;;5051755;28;20049;-66
2021/07/04 10:30:43;;;;;;;18.25;16.55;;;;;;;;;;5051342;28;20092;-66
2021/07/04 10:33:32;;;;;;;17.15;15.50;;;;;;;;;;5079935;28;20040;-66
2021/07/04 10:36:21;;;;;;;15.15;13.60;;;;;;;;;;5092069;28;20040;-66
2021/07/04 10:39:10;;;;;;;17.33;15.45;;;;;;;;;;5082081;28;20048;-67
2021/07/04 10:41:56;;;;;;;20.75;18.42;;;;;;;;;;5070888;28;20047;-66
2021/07/04 10:44:45;;;;;;;17.92;16.02;;;;;;;;;;5090813;28;20080;-66
2021/07/04 10:47:35;;;;;;;17.20;15.50;;;;;;;;;;5092079;28;20048;-67
2021/07/04 10:50:21;;;;;;;15.80;14.30;;;;;;;;;;5090596;28;20128;-66
2021/07/04 10:53:06;;;;;;;17.33;15.57;;;;;;;;;;5089890;28;20184;-67
2021/07/04 10:55:51;;;;;;;18.13;16.25;;;;;;;;;;5091772;28;20044;-67
2021/07/04 10:58:56;;;;;;;19.48;17.45;;;;;;;;;;5090637;28;20418;-67
2021/07/04 11:01:58;;;;;;;18.83;16.92;;;;;;;;;;5091408;28;20187;-66
2021/07/04 11:04:44;;;;;;;;;;;;;;;;;;5090851;28;20047;-67
2021/07/04 11:07:49;;;;;;;17.98;16.05;;;;;;;;;;5091684;28;19966;-67
2021/07/04 11:10:35;;;;;;;18.52;16.52;;;;;;;;;;5091333;28;20040;-67
2021/07/04 11:13:21;;;;;;;15.90;14.30;;;;;;;;;;5088441;28;20060;-67
2021/07/04 11:16:08;;;;;;;18.50;16.55;;;;;;;;;;5088123;28;20047;-67
2021/07/04 11:18:55;;;;;;;18.20;16.05;;;;;;;;;;5090525;28;20410;-68
2021/07/04 11:21:47;;;;;;;17.17;14.60;;;;;;;;;;5062478;28;20916;-67
2021/07/04 11:24:33;;;;;;;15.70;14.23;;;;;;;;;;5059361;28;20045;-67
2021/07/04 11:27:22;;;;;;;16.88;15.07;;;;;;;;;;5068655;28;20498;-68
2021/07/04 11:30:26;;;;;;;14.10;12.70;;;;;;;;;;5067726;28;20118;-67
2021/07/04 11:33:17;;;;;;;18.05;14.82;;;;;;;;;;5060418;28;20048;-68
2021/07/04 11:36:04;;;;;;;15.10;13.68;;;;;;;;;;5073417;28;20048;-68
2021/07/04 11:38:52;;;;;;;17.15;15.45;;;;;;;;;;5072569;28;20036;-67
2021/07/04 11:41:41;;;;;;;14.25;12.85;;;;;;;;;;5071965;28;20190;-67
2021/07/04 11:44:27;;;;;;;16.17;14.50;;;;;;;;;;5071302;28;20044;-67
2021/07/04 11:47:11;;;;;;;15.35;13.85;;;;;;;;;;5071243;28;20470;-67
2021/07/04 11:50:06;;;;;;;15.38;13.98;;;;;;;;;;5052460;28;20124;-67
2021/07/04 11:53:03;;;;;;;13.13;11.85;;;;;;;;;;5070960;28;20040;-68
2021/07/04 11:56:03;;;;;;;15.15;13.68;;;;;;;;;;5068038;28;20044;-67
2021/07/04 11:58:48;;;;;;;13.93;12.57;;;;;;;;;;5068667;28;20123;-67
2021/07/04 12:01:39;;;;;;;12.95;11.80;;;;;;;;;;5071366;28;20041;-67
2021/07/04 12:04:32;;;;;;;13.93;12.65;;;;;;;;;;5072529;28;20086;-67
2021/07/04 12:07:18;;;;;;;13.25;11.82;;;;;;;;;;5074805;28;20056;-67
2021/07/04 12:10:04;;;;;;;16.58;14.98;;;;;;;;;;5069148;28;20044;-67
2021/07/04 12:12:49;;;;;;;16.73;15.13;;;;;;;;;;5067618;28;21120;-67
2021/07/04 12:15:34;;;;;;;16.83;15.23;;;;;;;;;;5073496;28;20406;-66
2021/07/04 12:18:21;;;;;;;17.02;15.32;;;;;;;;;;5077037;28;20497;-67
2021/07/04 12:21:07;;;;;;;18.73;15.95;;;;;;;;;;5074673;28;20132;-66
2021/07/04 12:23:52;;;;;;;16.77;15.07;;;;;;;;;;5067321;28;20123;-66
2021/07/04 12:26:45;;;;;;;16.88;15.23;;;;;;;;;;5071288;28;20167;-66
2021/07/04 12:29:31;;;;;;;17.58;15.88;;;;;;;;;;5061816;28;20045;-66
2021/07/04 12:32:16;;;;;;;16.10;14.50;;;;;;;;;;5071802;28;20066;-66
2021/07/04 12:35:01;;;;;;;15.75;14.15;;;;;;;;;;5072960;28;20052;-67
2021/07/04 12:37:47;;;;;;;16.08;14.48;;;;;;;;;;5087224;28;20067;-66
2021/07/04 12:40:37;;;;;;;16.45;14.85;;;;;;;;;;5072705;28;20041;-66
2021/07/04 12:43:41;;;;;;;16.88;15.38;;;;;;;;;;5072443;28;20072;-67
2021/07/04 12:46:28;;;;;;;15.30;13.88;;;;;;;;;;5076198;28;20040;-67
2021/07/04 12:49:13;;;;;;;16.17;14.45;;;;;;;;;;5090519;28;20506;-67
2021/07/04 12:51:59;;;;;;;16.92;15.23;;;;;;;;;;5072231;28;20118;-67
2021/07/04 12:54:44;;;;;;;16.80;15.13;;;;;;;;;;5069596;28;20543;-67
2021/07/04 12:57:30;;;;;;;16.05;14.43;;;;;;;;;;5075126;28;20055;-67
2021/07/04 13:00:16;;;;;;;17.42;15.20;;;;;;;;;;5077717;28;20517;-67
2021/07/04 13:03:01;;;;;;;17.33;15.63;;;;;;;;;;5070980;28;20064;-66
2021/07/04 13:05:46;;;;;;;15.63;14.02;;;;;;;;;;5070484;28;20113;-66
2021/07/04 13:08:33;;;;;;;17.05;15.35;;;;;;;;;;5083210;28;20044;-66
2021/07/04 13:11:18;;;;;;;16.08;14.57;;;;;;;;;;5071218;28;20052;-66
2021/07/04 13:14:05;;;;;;;16.73;15.13;;;;;;;;;;5069912;28;20145;-66
2021/07/04 13:16:53;;;;;;;17.88;16.17;;;;;;;;;;5069440;28;20066;-66
2021/07/04 13:19:39;;;;;;;15.05;13.52;;;;;;;;;;5089296;28;20063;-66
2021/07/04 13:22:25;;;;;;;16.45;14.95;;;;;;;;;;5082053;28;20048;-66
2021/07/04 13:25:20;;;;;;;16.02;14.43;;;;;;;;;;5064494;28;20052;-66
2021/07/04 13:28:12;;;;;;;13.57;12.27;;;;;;;;;;5076383;28;20558;-66
2021/07/04 13:30:58;;;;;;;12.60;11.50;;;;;;;;;;5090840;28;20521;-66
2021/07/04 13:33:43;;;;;;;13.57;12.38;;;;;;;;;;5090549;28;20051;-66
2021/07/04 13:36:28;;;;;;;14.95;13.55;;;;;;;;;;5090622;28;20051;-66
2021/07/04 13:39:13;;;;;;;14.23;13.00;;;;;;;;;;5080946;28;20513;-66
2021/07/04 13:41:59;;;;;;;11.55;10.55;;;;;;;;;;5064136;28;20521;-66
2021/07/04 13:44:44;;;;;;;11.27;10.20;;;;;;;;;;5068155;28;20131;-66
2021/07/04 13:47:29;;;;;;;11.82;10.73;;;;;;;;;;5067777;28;20051;-66
2021/07/04 13:50:15;;;;;;;9.77;8.95;;;;;;;;;;5070225;28;20064;-67
2021/07/04 13:53:00;;;;;;;10.00;8.98;;;;;;;;;;5090805;28;20044;-67
2021/07/04 13:55:46;;;;;;;10.13;9.32;;;;;;;;;;5067176;28;20044;-67
2021/07/04 13:58:31;;;;;;;12.95;11.77;;;;;;;;;;5068360;28;20418;-66
2021/07/04 14:01:16;;;;;;;12.63;11.52;;;;;;;;;;5070265;28;20052;-66
2021/07/04 14:04:01;;;;;;;12.30;11.10;;;;;;;;;;5070096;28;20056;-66
2021/07/04 14:06:46;;;;;;;11.57;10.52;;;;;;;;;;5069726;28;20044;-66
2021/07/04 14:09:32;;;;;;;9.48;8.68;;;;;;;;;;5074694;28;20055;-66
2021/07/04 14:12:18;;;;;;;9.27;8.38;;;;;;;;;;5050200;28;20055;-66
2021/07/04 14:15:04;;;;;;;9.30;8.40;;;;;;;;;;5056414;28;20414;-66
2021/07/04 14:17:50;;;;;;;8.68;7.78;;;;;;;;;;5067679;28;20097;-66
2021/07/04 14:20:35;;;;;;;9.20;8.38;;;;;;;;;;5077006;28;20517;-66
2021/07/04 14:23:20;;;;;;;8.65;7.85;;;;;;;;;;5089792;28;20093;-66
2021/07/04 14:26:05;;;;;;;8.55;7.65;;;;;;;;;;5088778;28;20493;-66
2021/07/04 14:28:51;;;;;;;9.98;8.50;;;;;;;;;;5089564;28;20056;-66
2021/07/04 14:31:36;;;;;;;9.02;8.13;;;;;;;;;;5087480;28;20042;-66
2021/07/04 14:34:21;;;;;;;7.70;7.00;;;;;;;;;;5072946;28;20059;-66
2021/07/04 14:37:07;;;;;;;7.18;6.55;;;;;;;;;;5069677;28;20410;-66
2021/07/04 14:39:52;;;;;;;9.07;8.18;;;;;;;;;;5069317;28;20136;-66
2021/07/04 14:42:37;;;;;;;8.88;7.97;;;;;;;;;;5071490;22;20071;-66
2021/07/04 14:45:22;;;;;;;9.10;8.23;;;;;;;;;;5042887;28;20211;-66
2021/07/04 14:48:08;;;;;;;7.85;7.15;;;;;;;;;;5051640;28;20510;-66
2021/07/04 14:51:01;;;;;;;10.02;8.20;;;;;;;;;;5060376;28;20059;-66
2021/07/04 14:53:46;;;;;;;8.52;7.72;;;;;;;;;;5067724;28;20052;-66
2021/07/04 14:56:31;;;;;;;8.45;7.55;;;;;;;;;;5067515;28;20047;-65
2021/07/04 14:59:17;;;;;;;9.07;8.23;;;;;;;;;;5067105;28;20056;-66
2021/07/04 15:02:02;;;;;;;9.23;8.32;;;;;;;;;;5069720;28;20174;-67
2021/07/04 15:04:47;;;;;;;11.35;9.90;;;;;;;;;;5066698;28;20098;-66
2021/07/04 15:07:33;;;;;;;12.75;10.82;;;;;;;;;;5069420;28;20105;-66
2021/07/04 15:10:19;;;;;;;10.40;9.50;;;;;;;;;;5071975;28;20044;-67
2021/07/04 15:13:05;;;;;;;10.75;9.75;;;;;;;;;;5072826;28;20059;-67
2021/07/04 15:15:50;;;;;;;10.55;9.55;;;;;;;;;;5072179;28;20134;-66
2021/07/04 15:18:35;;;;;;;10.52;9.57;;;;;;;;;;5072970;28;20197;-66
2021/07/04 15:21:20;;;;;;;11.00;10.00;;;;;;;;;;5070787;28;20514;-67
2021/07/04 15:24:07;;;;;;;10.52;9.57;;;;;;;;;;5068306;28;20051;-66
2021/07/04 15:26:52;;;;;;;10.98;10.00;;;;;;;;;;5072668;28;20044;-66
2021/07/04 15:29:38;;;;;;;11.98;10.88;;;;;;;;;;5071919;28;20055;-66
2021/07/04 15:32:23;;;;;;;34.25;15.13;;;;;;;;;;5072014;28;20055;-66
2021/07/04 15:35:09;;;;;;;30.33;16.25;;;;;;;;;;5071635;28;20135;-66
2021/07/04 15:37:55;;;;;;;22.30;13.45;;;;;;;;;;5072970;28;20123;-66
2021/07/04 15:40:40;;;;;;;20.23;16.85;;;;;;;;;;5070026;28;20194;-66
2021/07/04 15:43:25;;;;;;;16.10;14.32;;;;;;;;;;5071943;28;20047;-66
2021/07/04 15:46:10;;;;;;;18.88;16.58;;;;;;;;;;5057573;28;20076;-66
2021/07/04 15:48:56;;;;;;;18.33;16.10;;;;;;;;;;5070533;28;20063;-65
2021/07/04 15:51:41;;;;;;;17.92;16.13;;;;;;;;;;5070278;28;20048;-65
2021/07/04 15:54:26;;;;;;;16.10;14.50;;;;;;;;;;5070669;28;20036;-65
2021/07/04 15:57:14;;;;;;;11.88;10.68;;;;;;;;;;5072195;28;20047;-66
2021/07/04 16:00:00;;;;;;;5.95;5.50;;;;;;;;;;5070348;28;20595;-66
2021/07/04 16:02:45;;;;;;;5.57;4.75;;;;;;;;;;5051383;28;20183;-66
2021/07/04 16:05:31;;;;;;;7.40;5.90;;;;;;;;;;5057972;28;20036;-66
2021/07/04 16:08:16;;;;;;;6.28;5.68;;;;;;;;;;5072363;28;20041;-65
2021/07/04 16:11:03;;;;;;;6.03;5.00;;;;;;;;;;5070492;28;20049;-65
2021/07/04 16:13:48;;;;;;;5.25;4.85;;;;;;;;;;5071485;28;20040;-65